sensor_id;sensor_type;location;lat;lon;timestamp;temperature;humidity
24638;DHT22;12773;50.162;8.548;2022-07-22T00:00:41;20.60;99.90
24638;DHT22;12773;50.162;8.548;2022-07-22T00:03:28;20.60;99.90
24638;DHT22;12773;50.162;8.548;2022-07-22T00:06:15;20.50;99.90
24638;DHT22;12773;50.162;8.548;2022-07-22T00:09:04;20.50;99.90
24638;DHT22;12773;50.162;8.548;2022-07-22T00:11:52;20.40;99.90
24638;DHT22;12773;50.162;8.548;2022-07-22T00:14:39;20.30;99.90
24638;DHT22;12773;50.162;8.548;2022-07-22T00:17:26;20.10;99.90
24638;DHT22;12773;50.162;8.548;2022-07-22T00:20:13;20.00;99.90
24638;DHT22;12773;50.162;8.548;2022-07-22T00:23:01;19.90;99.90
24638;DHT22;12773;50.162;8.548;2022-07-22T00:25:48;19.90;99.90
24638;DHT22;12773;50.162;8.548;2022-07-22T00:28:36;19.90;99.90
24638;DHT22;12773;50.162;8.548;2022-07-22T00:31:23;19.80;99.90
24638;DHT22;12773;50.162;8.548;2022-07-22T00:34:10;19.60;99.90
24638;DHT22;12773;50.162;8.548;2022-07-22T00:36:58;19.50;99.90
24638;DHT22;12773;50.162;8.548;2022-07-22T00:39:45;19.50;99.90
24638;DHT22;12773;50.162;8.548;2022-07-22T00:42:34;19.60;99.90
24638;DHT22;12773;50.162;8.548;2022-07-22T00:45:22;19.50;99.90
24638;DHT22;12773;50.162;8.548;2022-07-22T00:48:09;19.50;99.90
24638;DHT22;12773;50.162;8.548;2022-07-22T00:50:57;19.60;99.90
24638;DHT22;12773;50.162;8.548;2022-07-22T00:53:46;19.50;99.90
24638;DHT22;12773;50.162;8.548;2022-07-22T00:56:34;19.60;99.90
24638;DHT22;12773;50.162;8.548;2022-07-22T00:59:22;19.40;99.90
24638;DHT22;12773;50.162;8.548;2022-07-22T01:02:09;19.40;99.90
24638;DHT22;12773;50.162;8.548;2022-07-22T01:04:57;19.20;99.90
24638;DHT22;12773;50.162;8.548;2022-07-22T01:07:45;19.20;99.90
24638;DHT22;12773;50.162;8.548;2022-07-22T01:10:32;19.10;99.90
24638;DHT22;12773;50.162;8.548;2022-07-22T01:13:20;19.00;99.90
24638;DHT22;12773;50.162;8.548;2022-07-22T01:16:08;18.90;99.90
24638;DHT22;12773;50.162;8.548;2022-07-22T01:18:56;18.80;99.90
24638;DHT22;12773;50.162;8.548;2022-07-22T01:21:44;18.80;99.90
24638;DHT22;12773;50.162;8.548;2022-07-22T01:24:32;18.80;99.90
24638;DHT22;12773;50.162;8.548;2022-07-22T01:27:19;18.80;99.90
24638;DHT22;12773;50.162;8.548;2022-07-22T01:30:07;18.70;99.90
24638;DHT22;12773;50.162;8.548;2022-07-22T01:32:55;18.60;99.90
24638;DHT22;12773;50.162;8.548;2022-07-22T01:35:42;18.60;99.90
24638;DHT22;12773;50.162;8.548;2022-07-22T01:38:29;18.50;99.90
24638;DHT22;12773;50.162;8.548;2022-07-22T01:41:17;18.60;99.90
24638;DHT22;12773;50.162;8.548;2022-07-22T01:44:04;18.60;99.90
24638;DHT22;12773;50.162;8.548;2022-07-22T01:46:52;18.60;99.90
24638;DHT22;12773;50.162;8.548;2022-07-22T01:49:39;18.70;99.90
24638;DHT22;12773;50.162;8.548;2022-07-22T01:52:27;18.60;99.90
24638;DHT22;12773;50.162;8.548;2022-07-22T01:55:15;18.30;99.90
24638;DHT22;12773;50.162;8.548;2022-07-22T01:58:02;18.10;99.90
24638;DHT22;12773;50.162;8.548;2022-07-22T02:00:50;18.10;99.90
24638;DHT22;12773;50.162;8.548;2022-07-22T02:03:38;18.10;99.90
24638;DHT22;12773;50.162;8.548;2022-07-22T02:06:25;18.00;99.90
24638;DHT22;12773;50.162;8.548;2022-07-22T02:09:13;17.90;99.90
24638;DHT22;12773;50.162;8.548;2022-07-22T02:12:00;17.90;99.90
24638;DHT22;12773;50.162;8.548;2022-07-22T02:14:48;17.80;99.90
24638;DHT22;12773;50.162;8.548;2022-07-22T02:17:36;17.90;99.90
24638;DHT22;12773;50.162;8.548;2022-07-22T02:20:23;17.80;99.90
24638;DHT22;12773;50.162;8.548;2022-07-22T02:23:11;17.80;99.90
24638;DHT22;12773;50.162;8.548;2022-07-22T02:25:59;17.70;99.90
24638;DHT22;12773;50.162;8.548;2022-07-22T02:28:46;17.80;99.90
24638;DHT22;12773;50.162;8.548;2022-07-22T02:31:34;17.80;99.90
24638;DHT22;12773;50.162;8.548;2022-07-22T02:34:21;17.80;99.90
24638;DHT22;12773;50.162;8.548;2022-07-22T02:37:09;17.90;99.90
24638;DHT22;12773;50.162;8.548;2022-07-22T02:39:57;18.00;99.90
24638;DHT22;12773;50.162;8.548;2022-07-22T02:42:44;18.00;99.90
24638;DHT22;12773;50.162;8.548;2022-07-22T02:45:33;17.90;99.90
24638;DHT22;12773;50.162;8.548;2022-07-22T02:48:21;17.90;99.90
24638;DHT22;12773;50.162;8.548;2022-07-22T02:51:08;17.90;99.90
24638;DHT22;12773;50.162;8.548;2022-07-22T02:53:55;18.00;99.90
24638;DHT22;12773;50.162;8.548;2022-07-22T02:56:42;18.00;99.90
24638;DHT22;12773;50.162;8.548;2022-07-22T02:59:29;18.00;99.90
24638;DHT22;12773;50.162;8.548;2022-07-22T03:02:17;18.00;99.90
24638;DHT22;12773;50.162;8.548;2022-07-22T03:05:05;18.10;99.90
24638;DHT22;12773;50.162;8.548;2022-07-22T03:07:53;18.10;99.90
24638;DHT22;12773;50.162;8.548;2022-07-22T03:10:40;18.20;99.90
24638;DHT22;12773;50.162;8.548;2022-07-22T03:13:27;18.10;99.90
24638;DHT22;12773;50.162;8.548;2022-07-22T03:16:15;18.20;99.90
24638;DHT22;12773;50.162;8.548;2022-07-22T03:19:02;18.20;99.90
24638;DHT22;12773;50.162;8.548;2022-07-22T03:21:50;18.20;99.90
24638;DHT22;12773;50.162;8.548;2022-07-22T03:24:37;18.20;99.90
24638;DHT22;12773;50.162;8.548;2022-07-22T03:27:25;18.20;99.90
24638;DHT22;12773;50.162;8.548;2022-07-22T03:30:13;18.20;99.90
24638;DHT22;12773;50.162;8.548;2022-07-22T03:33:01;18.20;99.90
24638;DHT22;12773;50.162;8.548;2022-07-22T03:35:48;18.30;99.90
24638;DHT22;12773;50.162;8.548;2022-07-22T03:38:36;18.10;99.90
24638;DHT22;12773;50.162;8.548;2022-07-22T03:41:23;18.00;99.90
24638;DHT22;12773;50.162;8.548;2022-07-22T03:44:10;18.00;99.90
24638;DHT22;12773;50.162;8.548;2022-07-22T03:46:58;18.00;99.90
24638;DHT22;12773;50.162;8.548;2022-07-22T03:49:45;18.00;99.90
24638;DHT22;12773;50.162;8.548;2022-07-22T03:52:32;18.10;99.90
24638;DHT22;12773;50.162;8.548;2022-07-22T03:55:20;18.10;99.90
24638;DHT22;12773;50.162;8.548;2022-07-22T03:58:07;18.20;99.90
24638;DHT22;12773;50.162;8.548;2022-07-22T04:00:55;18.30;99.90
24638;DHT22;12773;50.162;8.548;2022-07-22T04:03:43;18.20;99.90
24638;DHT22;12773;50.162;8.548;2022-07-22T04:06:30;18.30;99.90
24638;DHT22;12773;50.162;8.548;2022-07-22T04:09:18;18.30;99.90
24638;DHT22;12773;50.162;8.548;2022-07-22T04:12:06;18.30;99.90
24638;DHT22;12773;50.162;8.548;2022-07-22T04:14:53;18.50;99.90
24638;DHT22;12773;50.162;8.548;2022-07-22T04:17:40;18.50;99.90
24638;DHT22;12773;50.162;8.548;2022-07-22T04:20:28;18.60;99.90
24638;DHT22;12773;50.162;8.548;2022-07-22T04:23:15;18.70;99.90
24638;DHT22;12773;50.162;8.548;2022-07-22T04:26:05;18.80;99.90
24638;DHT22;12773;50.162;8.548;2022-07-22T04:28:53;18.80;99.90
24638;DHT22;12773;50.162;8.548;2022-07-22T04:31:40;18.90;99.90
24638;DHT22;12773;50.162;8.548;2022-07-22T04:34:28;18.90;99.90
24638;DHT22;12773;50.162;8.548;2022-07-22T04:37:15;19.10;99.90
24638;DHT22;12773;50.162;8.548;2022-07-22T04:40:04;19.10;99.90
24638;DHT22;12773;50.162;8.548;2022-07-22T04:42:52;19.10;99.90
24638;DHT22;12773;50.162;8.548;2022-07-22T04:45:40;19.20;99.90
24638;DHT22;12773;50.162;8.548;2022-07-22T04:48:27;19.20;99.90
24638;DHT22;12773;50.162;8.548;2022-07-22T04:51:15;19.40;99.90
24638;DHT22;12773;50.162;8.548;2022-07-22T04:54:04;19.50;99.90
24638;DHT22;12773;50.162;8.548;2022-07-22T04:56:52;19.60;99.90
24638;DHT22;12773;50.162;8.548;2022-07-22T04:59:39;19.70;99.90
24638;DHT22;12773;50.162;8.548;2022-07-22T05:02:27;19.80;99.90
24638;DHT22;12773;50.162;8.548;2022-07-22T05:05:14;19.90;99.90
24638;DHT22;12773;50.162;8.548;2022-07-22T05:08:01;20.00;99.90
24638;DHT22;12773;50.162;8.548;2022-07-22T05:10:49;20.10;99.90
24638;DHT22;12773;50.162;8.548;2022-07-22T05:13:36;20.10;99.90
24638;DHT22;12773;50.162;8.548;2022-07-22T05:16:23;20.20;99.90
24638;DHT22;12773;50.162;8.548;2022-07-22T05:19:11;20.20;99.90
24638;DHT22;12773;50.162;8.548;2022-07-22T05:21:58;20.30;99.90
24638;DHT22;12773;50.162;8.548;2022-07-22T05:24:46;20.40;99.90
24638;DHT22;12773;50.162;8.548;2022-07-22T05:27:33;20.50;99.90
24638;DHT22;12773;50.162;8.548;2022-07-22T05:30:21;20.60;99.90
24638;DHT22;12773;50.162;8.548;2022-07-22T05:33:10;20.60;99.90
24638;DHT22;12773;50.162;8.548;2022-07-22T05:35:57;20.60;99.90
24638;DHT22;12773;50.162;8.548;2022-07-22T05:38:45;20.70;99.90
24638;DHT22;12773;50.162;8.548;2022-07-22T05:41:32;20.70;99.90
24638;DHT22;12773;50.162;8.548;2022-07-22T05:44:19;20.80;99.90
24638;DHT22;12773;50.162;8.548;2022-07-22T05:47:07;20.80;99.90
24638;DHT22;12773;50.162;8.548;2022-07-22T05:49:54;20.90;99.90
24638;DHT22;12773;50.162;8.548;2022-07-22T05:52:42;20.80;99.90
24638;DHT22;12773;50.162;8.548;2022-07-22T05:55:30;20.80;99.90
24638;DHT22;12773;50.162;8.548;2022-07-22T05:58:18;20.90;99.90
24638;DHT22;12773;50.162;8.548;2022-07-22T06:01:05;21.00;99.90
24638;DHT22;12773;50.162;8.548;2022-07-22T06:03:53;20.90;99.90
24638;DHT22;12773;50.162;8.548;2022-07-22T06:06:40;20.80;99.90
24638;DHT22;12773;50.162;8.548;2022-07-22T06:09:28;20.70;99.90
24638;DHT22;12773;50.162;8.548;2022-07-22T06:12:15;20.80;99.90
24638;DHT22;12773;50.162;8.548;2022-07-22T06:15:03;20.90;99.90
24638;DHT22;12773;50.162;8.548;2022-07-22T06:17:51;21.00;99.90
24638;DHT22;12773;50.162;8.548;2022-07-22T06:20:39;21.10;99.90
24638;DHT22;12773;50.162;8.548;2022-07-22T06:23:26;21.20;99.90
24638;DHT22;12773;50.162;8.548;2022-07-22T06:26:14;21.30;99.90
24638;DHT22;12773;50.162;8.548;2022-07-22T06:29:01;21.30;99.90
24638;DHT22;12773;50.162;8.548;2022-07-22T06:31:49;21.30;99.90
24638;DHT22;12773;50.162;8.548;2022-07-22T06:34:36;21.30;99.90
24638;DHT22;12773;50.162;8.548;2022-07-22T06:37:24;21.30;99.90
24638;DHT22;12773;50.162;8.548;2022-07-22T06:40:13;21.50;99.90
24638;DHT22;12773;50.162;8.548;2022-07-22T06:43:00;21.40;99.90
24638;DHT22;12773;50.162;8.548;2022-07-22T06:45:48;21.50;99.90
24638;DHT22;12773;50.162;8.548;2022-07-22T06:48:36;21.60;99.90
24638;DHT22;12773;50.162;8.548;2022-07-22T06:51:24;21.70;99.90
24638;DHT22;12773;50.162;8.548;2022-07-22T06:54:12;21.70;99.90
24638;DHT22;12773;50.162;8.548;2022-07-22T06:56:59;21.80;99.90
24638;DHT22;12773;50.162;8.548;2022-07-22T06:59:46;21.70;99.90
24638;DHT22;12773;50.162;8.548;2022-07-22T07:02:34;21.80;99.90
24638;DHT22;12773;50.162;8.548;2022-07-22T07:05:22;21.80;99.90
24638;DHT22;12773;50.162;8.548;2022-07-22T07:08:12;21.80;99.90
24638;DHT22;12773;50.162;8.548;2022-07-22T07:10:59;22.00;99.90
24638;DHT22;12773;50.162;8.548;2022-07-22T07:13:47;22.30;99.90
24638;DHT22;12773;50.162;8.548;2022-07-22T07:16:34;22.40;99.90
24638;DHT22;12773;50.162;8.548;2022-07-22T07:19:22;22.60;99.90
24638;DHT22;12773;50.162;8.548;2022-07-22T07:22:09;22.70;99.90
24638;DHT22;12773;50.162;8.548;2022-07-22T07:25:01;22.70;99.90
24638;DHT22;12773;50.162;8.548;2022-07-22T07:27:47;22.70;99.90
24638;DHT22;12773;50.162;8.548;2022-07-22T07:30:34;22.70;99.90
24638;DHT22;12773;50.162;8.548;2022-07-22T07:33:21;22.80;99.90
24638;DHT22;12773;50.162;8.548;2022-07-22T07:36:10;22.80;99.90
24638;DHT22;12773;50.162;8.548;2022-07-22T07:38:58;22.80;99.90
24638;DHT22;12773;50.162;8.548;2022-07-22T07:41:46;22.80;99.90
24638;DHT22;12773;50.162;8.548;2022-07-22T07:44:35;22.90;99.90
24638;DHT22;12773;50.162;8.548;2022-07-22T07:47:22;22.80;99.90
24638;DHT22;12773;50.162;8.548;2022-07-22T07:50:10;22.90;99.90
24638;DHT22;12773;50.162;8.548;2022-07-22T07:52:57;22.80;99.90
24638;DHT22;12773;50.162;8.548;2022-07-22T07:55:44;22.80;99.90
24638;DHT22;12773;50.162;8.548;2022-07-22T07:58:32;22.70;99.90
24638;DHT22;12773;50.162;8.548;2022-07-22T08:01:21;22.80;99.90
24638;DHT22;12773;50.162;8.548;2022-07-22T08:04:10;22.90;99.90
24638;DHT22;12773;50.162;8.548;2022-07-22T08:06:59;23.00;99.90
24638;DHT22;12773;50.162;8.548;2022-07-22T08:09:46;23.00;99.90
24638;DHT22;12773;50.162;8.548;2022-07-22T08:12:33;23.10;99.90
24638;DHT22;12773;50.162;8.548;2022-07-22T08:15:21;23.20;99.90
24638;DHT22;12773;50.162;8.548;2022-07-22T08:18:10;23.30;99.90
24638;DHT22;12773;50.162;8.548;2022-07-22T08:20:57;23.40;99.90
24638;DHT22;12773;50.162;8.548;2022-07-22T08:23:46;23.30;99.90
24638;DHT22;12773;50.162;8.548;2022-07-22T08:26:33;23.20;99.90
24638;DHT22;12773;50.162;8.548;2022-07-22T08:29:20;23.30;99.90
24638;DHT22;12773;50.162;8.548;2022-07-22T08:32:08;23.50;99.90
24638;DHT22;12773;50.162;8.548;2022-07-22T08:34:55;23.70;99.90
24638;DHT22;12773;50.162;8.548;2022-07-22T08:37:43;23.80;99.90
24638;DHT22;12773;50.162;8.548;2022-07-22T08:40:32;23.90;99.90
24638;DHT22;12773;50.162;8.548;2022-07-22T08:43:19;23.90;99.90
24638;DHT22;12773;50.162;8.548;2022-07-22T08:46:07;23.60;99.90
24638;DHT22;12773;50.162;8.548;2022-07-22T08:48:54;23.40;99.90
24638;DHT22;12773;50.162;8.548;2022-07-22T08:51:42;23.40;99.90
24638;DHT22;12773;50.162;8.548;2022-07-22T08:54:31;23.60;99.90
24638;DHT22;12773;50.162;8.548;2022-07-22T08:57:18;23.90;99.90
24638;DHT22;12773;50.162;8.548;2022-07-22T09:00:10;23.90;99.90
24638;DHT22;12773;50.162;8.548;2022-07-22T09:02:58;24.10;99.90
24638;DHT22;12773;50.162;8.548;2022-07-22T09:09:34;23.80;99.90
24638;DHT22;12773;50.162;8.548;2022-07-22T09:12:21;23.90;99.90
24638;DHT22;12773;50.162;8.548;2022-07-22T09:15:09;24.00;99.90
24638;DHT22;12773;50.162;8.548;2022-07-22T09:17:57;24.20;99.90
24638;DHT22;12773;50.162;8.548;2022-07-22T09:20:46;24.30;99.90
24638;DHT22;12773;50.162;8.548;2022-07-22T09:23:38;24.40;99.90
24638;DHT22;12773;50.162;8.548;2022-07-22T09:26:32;24.60;99.90
24638;DHT22;12773;50.162;8.548;2022-07-22T09:29:19;24.90;99.90
24638;DHT22;12773;50.162;8.548;2022-07-22T09:32:11;25.10;99.90
24638;DHT22;12773;50.162;8.548;2022-07-22T09:35:04;25.20;99.90
24638;DHT22;12773;50.162;8.548;2022-07-22T09:37:53;25.50;99.90
24638;DHT22;12773;50.162;8.548;2022-07-22T09:40:43;25.70;99.90
24638;DHT22;12773;50.162;8.548;2022-07-22T09:43:34;25.80;99.90
24638;DHT22;12773;50.162;8.548;2022-07-22T09:46:35;25.80;99.90
24638;DHT22;12773;50.162;8.548;2022-07-22T09:49:36;25.90;99.90
24638;DHT22;12773;50.162;8.548;2022-07-22T09:52:26;26.30;99.90
24638;DHT22;12773;50.162;8.548;2022-07-22T09:55:18;26.50;99.90
24638;DHT22;12773;50.162;8.548;2022-07-22T09:58:06;26.50;99.90
24638;DHT22;12773;50.162;8.548;2022-07-22T10:01:02;26.20;99.90
24638;DHT22;12773;50.162;8.548;2022-07-22T10:03:48;26.30;99.90
24638;DHT22;12773;50.162;8.548;2022-07-22T10:06:37;26.20;99.90
24638;DHT22;12773;50.162;8.548;2022-07-22T10:09:27;26.20;99.90
24638;DHT22;12773;50.162;8.548;2022-07-22T10:12:15;26.60;99.90
24638;DHT22;12773;50.162;8.548;2022-07-22T10:15:04;26.80;99.90
24638;DHT22;12773;50.162;8.548;2022-07-22T10:17:56;26.90;99.90
24638;DHT22;12773;50.162;8.548;2022-07-22T10:20:44;26.70;99.90
24638;DHT22;12773;50.162;8.548;2022-07-22T10:23:32;27.10;99.90
24638;DHT22;12773;50.162;8.548;2022-07-22T10:26:19;27.60;99.90
24638;DHT22;12773;50.162;8.548;2022-07-22T10:29:26;27.70;99.90
24638;DHT22;12773;50.162;8.548;2022-07-22T10:38:00;28.40;99.50
24638;DHT22;12773;50.162;8.548;2022-07-22T10:46:49;28.60;99.20
24638;DHT22;12773;50.162;8.548;2022-07-22T10:49:37;28.80;99.70
24638;DHT22;12773;50.162;8.548;2022-07-22T10:52:32;29.00;98.40
24638;DHT22;12773;50.162;8.548;2022-07-22T10:55:18;29.10;98.60
24638;DHT22;12773;50.162;8.548;2022-07-22T11:01:17;29.30;98.50
24638;DHT22;12773;50.162;8.548;2022-07-22T11:04:12;29.70;96.90
24638;DHT22;12773;50.162;8.548;2022-07-22T11:07:02;30.00;96.40
24638;DHT22;12773;50.162;8.548;2022-07-22T11:09:50;29.70;94.30
24638;DHT22;12773;50.162;8.548;2022-07-22T11:12:37;29.10;94.70
24638;DHT22;12773;50.162;8.548;2022-07-22T11:15:27;29.10;94.40
24638;DHT22;12773;50.162;8.548;2022-07-22T11:18:14;29.20;94.80
24638;DHT22;12773;50.162;8.548;2022-07-22T11:21:02;29.10;94.80
24638;DHT22;12773;50.162;8.548;2022-07-22T11:23:53;29.10;93.90
24638;DHT22;12773;50.162;8.548;2022-07-22T11:26:44;29.30;94.00
24638;DHT22;12773;50.162;8.548;2022-07-22T11:29:36;29.50;94.90
24638;DHT22;12773;50.162;8.548;2022-07-22T11:32:27;29.80;94.20
24638;DHT22;12773;50.162;8.548;2022-07-22T11:35:16;30.20;94.00
24638;DHT22;12773;50.162;8.548;2022-07-22T11:38:03;30.60;93.50
24638;DHT22;12773;50.162;8.548;2022-07-22T11:40:52;30.70;91.10
24638;DHT22;12773;50.162;8.548;2022-07-22T11:43:44;30.60;90.00
24638;DHT22;12773;50.162;8.548;2022-07-22T11:46:43;30.20;90.20
24638;DHT22;12773;50.162;8.548;2022-07-22T11:49:28;30.50;90.90
24638;DHT22;12773;50.162;8.548;2022-07-22T11:52:16;30.80;90.00
24638;DHT22;12773;50.162;8.548;2022-07-22T11:55:14;30.60;89.50
24638;DHT22;12773;50.162;8.548;2022-07-22T11:57:53;30.70;88.50
24638;DHT22;12773;50.162;8.548;2022-07-22T12:00:40;30.40;89.80
24638;DHT22;12773;50.162;8.548;2022-07-22T12:03:28;30.40;90.00
24638;DHT22;12773;50.162;8.548;2022-07-22T12:06:16;30.40;86.90
24638;DHT22;12773;50.162;8.548;2022-07-22T12:09:06;30.40;85.90
24638;DHT22;12773;50.162;8.548;2022-07-22T12:11:56;30.70;83.90
24638;DHT22;12773;50.162;8.548;2022-07-22T12:14:47;30.80;85.80
24638;DHT22;12773;50.162;8.548;2022-07-22T12:17:34;31.10;84.10
24638;DHT22;12773;50.162;8.548;2022-07-22T12:20:26;31.00;82.80
24638;DHT22;12773;50.162;8.548;2022-07-22T12:23:14;31.10;84.40
24638;DHT22;12773;50.162;8.548;2022-07-22T12:26:02;31.40;85.30
24638;DHT22;12773;50.162;8.548;2022-07-22T12:29:11;31.20;79.50
24638;DHT22;12773;50.162;8.548;2022-07-22T12:31:45;31.10;80.90
24638;DHT22;12773;50.162;8.548;2022-07-22T12:34:45;31.20;81.70
24638;DHT22;12773;50.162;8.548;2022-07-22T12:37:30;31.10;78.70
24638;DHT22;12773;50.162;8.548;2022-07-22T12:40:20;31.60;81.80
24638;DHT22;12773;50.162;8.548;2022-07-22T12:43:08;31.80;82.40
24638;DHT22;12773;50.162;8.548;2022-07-22T12:45:57;32.10;80.50
24638;DHT22;12773;50.162;8.548;2022-07-22T12:48:53;32.10;76.90
24638;DHT22;12773;50.162;8.548;2022-07-22T12:51:40;32.00;77.60
24638;DHT22;12773;50.162;8.548;2022-07-22T12:54:28;32.10;78.00
24638;DHT22;12773;50.162;8.548;2022-07-22T12:57:15;32.40;75.40
24638;DHT22;12773;50.162;8.548;2022-07-22T13:00:03;31.90;70.40
24638;DHT22;12773;50.162;8.548;2022-07-22T13:02:51;31.70;70.90
24638;DHT22;12773;50.162;8.548;2022-07-22T13:05:38;31.70;72.60
24638;DHT22;12773;50.162;8.548;2022-07-22T13:08:28;32.10;74.60
24638;DHT22;12773;50.162;8.548;2022-07-22T13:11:17;31.90;70.00
24638;DHT22;12773;50.162;8.548;2022-07-22T13:14:05;31.70;69.90
24638;DHT22;12773;50.162;8.548;2022-07-22T13:16:53;32.10;75.10
24638;DHT22;12773;50.162;8.548;2022-07-22T13:19:40;32.60;71.00
24638;DHT22;12773;50.162;8.548;2022-07-22T13:22:29;33.00;70.90
24638;DHT22;12773;50.162;8.548;2022-07-22T13:25:17;33.30;68.40
24638;DHT22;12773;50.162;8.548;2022-07-22T13:28:05;33.00;64.90
24638;DHT22;12773;50.162;8.548;2022-07-22T13:30:52;33.40;68.20
24638;DHT22;12773;50.162;8.548;2022-07-22T13:33:39;33.40;67.10
24638;DHT22;12773;50.162;8.548;2022-07-22T13:36:26;33.70;63.50
24638;DHT22;12773;50.162;8.548;2022-07-22T13:39:14;33.90;64.20
24638;DHT22;12773;50.162;8.548;2022-07-22T13:42:03;34.10;62.40
24638;DHT22;12773;50.162;8.548;2022-07-22T13:44:50;33.50;59.50
24638;DHT22;12773;50.162;8.548;2022-07-22T13:47:39;32.90;61.10
24638;DHT22;12773;50.162;8.548;2022-07-22T13:50:27;33.20;60.30
24638;DHT22;12773;50.162;8.548;2022-07-22T13:53:14;33.40;60.00
24638;DHT22;12773;50.162;8.548;2022-07-22T13:56:02;33.30;59.80
24638;DHT22;12773;50.162;8.548;2022-07-22T13:58:49;32.90;63.20
24638;DHT22;12773;50.162;8.548;2022-07-22T14:01:37;32.90;63.00
24638;DHT22;12773;50.162;8.548;2022-07-22T14:04:25;32.70;65.40
24638;DHT22;12773;50.162;8.548;2022-07-22T14:07:12;32.80;63.80
24638;DHT22;12773;50.162;8.548;2022-07-22T14:09:59;32.50;63.10
24638;DHT22;12773;50.162;8.548;2022-07-22T14:12:48;32.70;63.00
24638;DHT22;12773;50.162;8.548;2022-07-22T14:15:36;32.90;62.40
24638;DHT22;12773;50.162;8.548;2022-07-22T14:18:24;33.20;62.90
24638;DHT22;12773;50.162;8.548;2022-07-22T14:21:11;33.50;61.60
24638;DHT22;12773;50.162;8.548;2022-07-22T14:23:59;33.20;61.00
24638;DHT22;12773;50.162;8.548;2022-07-22T14:26:47;32.90;62.70
24638;DHT22;12773;50.162;8.548;2022-07-22T14:29:34;33.10;63.80
24638;DHT22;12773;50.162;8.548;2022-07-22T14:32:22;32.90;62.70
24638;DHT22;12773;50.162;8.548;2022-07-22T14:35:09;33.00;61.40
24638;DHT22;12773;50.162;8.548;2022-07-22T14:37:57;33.00;62.00
24638;DHT22;12773;50.162;8.548;2022-07-22T14:40:44;33.10;62.50
24638;DHT22;12773;50.162;8.548;2022-07-22T14:43:31;33.10;62.60
24638;DHT22;12773;50.162;8.548;2022-07-22T14:46:20;33.10;61.10
24638;DHT22;12773;50.162;8.548;2022-07-22T14:49:07;33.40;63.00
24638;DHT22;12773;50.162;8.548;2022-07-22T14:51:56;33.20;60.90
24638;DHT22;12773;50.162;8.548;2022-07-22T14:54:43;33.00;62.40
24638;DHT22;12773;50.162;8.548;2022-07-22T14:57:30;32.90;60.20
24638;DHT22;12773;50.162;8.548;2022-07-22T15:00:18;32.60;59.50
24638;DHT22;12773;50.162;8.548;2022-07-22T15:03:05;32.90;60.90
24638;DHT22;12773;50.162;8.548;2022-07-22T15:05:52;33.30;62.20
24638;DHT22;12773;50.162;8.548;2022-07-22T15:08:39;33.20;61.80
24638;DHT22;12773;50.162;8.548;2022-07-22T15:11:27;33.30;63.00
24638;DHT22;12773;50.162;8.548;2022-07-22T15:14:14;33.10;60.40
24638;DHT22;12773;50.162;8.548;2022-07-22T15:17:01;33.30;61.60
24638;DHT22;12773;50.162;8.548;2022-07-22T15:19:49;33.30;59.60
24638;DHT22;12773;50.162;8.548;2022-07-22T15:22:36;33.20;59.80
24638;DHT22;12773;50.162;8.548;2022-07-22T15:25:23;33.30;59.70
24638;DHT22;12773;50.162;8.548;2022-07-22T15:28:10;33.50;59.60
24638;DHT22;12773;50.162;8.548;2022-07-22T15:30:59;33.60;58.40
24638;DHT22;12773;50.162;8.548;2022-07-22T15:33:47;33.60;59.80
24638;DHT22;12773;50.162;8.548;2022-07-22T15:36:36;33.20;59.30
24638;DHT22;12773;50.162;8.548;2022-07-22T15:39:24;33.40;60.10
24638;DHT22;12773;50.162;8.548;2022-07-22T15:42:11;33.40;59.70
24638;DHT22;12773;50.162;8.548;2022-07-22T15:44:59;33.60;59.40
24638;DHT22;12773;50.162;8.548;2022-07-22T15:47:47;34.00;59.70
24638;DHT22;12773;50.162;8.548;2022-07-22T15:50:34;34.10;57.90
24638;DHT22;12773;50.162;8.548;2022-07-22T15:53:22;33.90;56.80
24638;DHT22;12773;50.162;8.548;2022-07-22T15:56:10;34.00;59.40
24638;DHT22;12773;50.162;8.548;2022-07-22T15:58:57;34.30;58.10
24638;DHT22;12773;50.162;8.548;2022-07-22T16:01:50;34.00;57.70
24638;DHT22;12773;50.162;8.548;2022-07-22T16:04:37;33.90;58.10
24638;DHT22;12773;50.162;8.548;2022-07-22T16:07:24;34.20;56.40
24638;DHT22;12773;50.162;8.548;2022-07-22T16:10:12;34.60;57.10
24638;DHT22;12773;50.162;8.548;2022-07-22T16:13:00;34.90;55.60
24638;DHT22;12773;50.162;8.548;2022-07-22T16:15:47;35.20;56.70
24638;DHT22;12773;50.162;8.548;2022-07-22T16:18:34;35.30;55.70
24638;DHT22;12773;50.162;8.548;2022-07-22T16:21:21;35.30;55.90
24638;DHT22;12773;50.162;8.548;2022-07-22T16:24:15;35.70;55.70
24638;DHT22;12773;50.162;8.548;2022-07-22T16:27:02;35.70;55.80
24638;DHT22;12773;50.162;8.548;2022-07-22T16:29:52;35.70;54.80
24638;DHT22;12773;50.162;8.548;2022-07-22T16:32:40;36.30;54.80
24638;DHT22;12773;50.162;8.548;2022-07-22T16:35:28;36.60;53.20
24638;DHT22;12773;50.162;8.548;2022-07-22T16:38:16;36.70;52.80
24638;DHT22;12773;50.162;8.548;2022-07-22T16:41:03;36.70;52.20
24638;DHT22;12773;50.162;8.548;2022-07-22T16:43:50;36.70;52.20
24638;DHT22;12773;50.162;8.548;2022-07-22T16:46:38;36.40;52.00
24638;DHT22;12773;50.162;8.548;2022-07-22T16:49:25;36.10;53.40
24638;DHT22;12773;50.162;8.548;2022-07-22T16:52:12;35.80;53.00
24638;DHT22;12773;50.162;8.548;2022-07-22T16:54:59;36.00;52.50
24638;DHT22;12773;50.162;8.548;2022-07-22T16:57:47;36.10;52.50
24638;DHT22;12773;50.162;8.548;2022-07-22T17:00:34;35.90;52.30
24638;DHT22;12773;50.162;8.548;2022-07-22T17:03:22;35.30;51.70
24638;DHT22;12773;50.162;8.548;2022-07-22T17:06:10;35.20;53.40
24638;DHT22;12773;50.162;8.548;2022-07-22T17:08:58;35.10;52.60
24638;DHT22;12773;50.162;8.548;2022-07-22T17:11:45;34.80;54.30
24638;DHT22;12773;50.162;8.548;2022-07-22T17:14:33;34.40;52.70
24638;DHT22;12773;50.162;8.548;2022-07-22T17:17:20;34.00;55.30
24638;DHT22;12773;50.162;8.548;2022-07-22T17:20:11;33.70;53.40
24638;DHT22;12773;50.162;8.548;2022-07-22T17:23:02;33.40;54.00
24638;DHT22;12773;50.162;8.548;2022-07-22T17:25:50;33.10;54.90
24638;DHT22;12773;50.162;8.548;2022-07-22T17:28:37;33.00;56.80
24638;DHT22;12773;50.162;8.548;2022-07-22T17:31:25;32.50;57.10
24638;DHT22;12773;50.162;8.548;2022-07-22T17:34:12;32.20;57.40
24638;DHT22;12773;50.162;8.548;2022-07-22T17:37:00;32.30;58.20
24638;DHT22;12773;50.162;8.548;2022-07-22T17:39:48;32.10;58.10
24638;DHT22;12773;50.162;8.548;2022-07-22T17:42:35;32.00;58.70
24638;DHT22;12773;50.162;8.548;2022-07-22T17:45:23;31.70;58.10
24638;DHT22;12773;50.162;8.548;2022-07-22T17:48:12;31.50;58.30
24638;DHT22;12773;50.162;8.548;2022-07-22T17:51:00;31.40;59.30
24638;DHT22;12773;50.162;8.548;2022-07-22T17:53:47;31.10;62.50
24638;DHT22;12773;50.162;8.548;2022-07-22T17:56:35;30.90;63.20
24638;DHT22;12773;50.162;8.548;2022-07-22T17:59:22;30.70;64.00